Airport ID:KMHV
Update Time (UTC):22/02/2020 11:07
Wind Speed (Knots):9
Wind Direction (Magnetic):220
Temperature (°C):11
Dew Point (°C):2
Humidity (%):54
Altimeter (inHg):29.96
Density Altitude (Feet):
Visibility (Miles):10+
Clouds (Hundreds of feet):FEW070 OVC095
Present Weather:
METAR:METAR KMHV 221100Z AUTO 22010KT 10SM FEW070 OVC095 11/01 A2996 RMK A01

The data displayed is for advisory purposes only and is not to be used for flight planning or operations.

This page is not automatically refreshed. Reload the page to see current data.